Time,TemperatureF,DewpointF,PressureIn,WindDirection,WindDirectionDegrees,WindSpeedMPH,WindSpeedGustMPH,Humidity,HourlyPrecipIn,Conditions,Clouds,dailyrainin,SoftwareType,DateUTC
2013-09-15 00:00:00,53.0,52.0,29.76,SW,218,0.0,0.0,95,0.00,,,0.00,weatherlink.com 1.10,2013-09-15 07:00:00,
2013-09-15 00:16:00,52.7,51.0,29.76,SSE,155,0.0,0.0,95,0.00,,,0.00,weatherlink.com 1.10,2013-09-15 07:16:00,
2013-09-15 00:31:00,53.4,52.0,29.75,East,100,0.0,0.0,96,0.00,,,0.00,weatherlink.com 1.10,2013-09-15 07:31:00,
2013-09-15 00:46:00,52.9,51.0,29.75,WSW,250,0.0,0.0,94,0.00,,,0.00,weatherlink.com 1.10,2013-09-15 07:46:00,
2013-09-15 01:01:00,52.5,51.0,29.75,WSW,249,0.0,0.0,95,0.00,,,0.00,weatherlink.com 1.10,2013-09-15 08:01:00,
2013-09-15 01:16:00,52.3,51.0,29.75,SE,131,0.0,0.0,96,0.00,,,0.00,weatherlink.com 1.10,2013-09-15 08:16:00,
2013-09-15 01:31:00,51.5,50.0,29.76,SE,133,0.0,0.0,95,0.00,,,0.00,weatherlink.com 1.10,2013-09-15 08:31:00,
2013-09-15 01:46:00,51.3,50.0,29.75,SSW,193,0.0,0.0,96,0.00,,,0.00,weatherlink.com 1.10,2013-09-15 08:46:00,
2013-09-15 02:01:00,51.2,50.0,29.76,SSW,192,0.0,0.0,96,0.00,,,0.00,weatherlink.com 1.10,2013-09-15 09:01:00,
2013-09-15 02:16:00,51.4,51.0,29.76,South,190,0.0,0.0,97,0.00,,,0.00,weatherlink.com 1.10,2013-09-15 09:16:00,
2013-09-15 02:31:00,52.2,51.0,29.77,South,191,0.0,0.0,97,0.00,,,0.00,weatherlink.com 1.10,2013-09-15 09:31:00,
2013-09-15 02:46:00,52.5,52.0,29.77,ESE,123,0.0,0.0,97,0.00,,,0.00,weatherlink.com 1.10,2013-09-15 09:46:00,
2013-09-15 03:01:00,53.5,53.0,29.77,SE,130,0.0,0.0,97,0.00,,,0.00,weatherlink.com 1.10,2013-09-15 10:01:00,
2013-09-15 03:16:00,54.0,53.0,29.77,ESE,113,1.0,3.0,97,0.00,,,0.00,weatherlink.com 1.10,2013-09-15 10:16:00,
2013-09-15 03:31:00,54.2,53.0,29.77,SSE,155,0.0,3.0,97,0.00,,,0.00,weatherlink.com 1.10,2013-09-15 10:31:00,
2013-09-15 03:46:00,54.1,53.0,29.77,SSW,195,2.0,4.0,97,0.00,,,0.00,weatherlink.com 1.10,2013-09-15 10:46:00,
2013-09-15 04:01:00,54.1,53.0,29.77,SW,215,0.0,3.0,97,0.00,,,0.00,weatherlink.com 1.10,2013-09-15 11:01:00,
2013-09-15 04:16:00,54.0,53.0,29.77,SSW,210,1.0,3.0,97,0.00,,,0.00,weatherlink.com 1.10,2013-09-15 11:16:00,
2013-09-15 04:31:00,54.1,54.0,29.78,SW,229,3.0,3.0,98,0.00,,,0.00,weatherlink.com 1.10,2013-09-15 11:31:00,
2013-09-15 04:46:00,53.6,53.0,29.78,SW,229,0.0,3.0,97,0.00,,,0.00,weatherlink.com 1.10,2013-09-15 11:46:00,
2013-09-15 05:01:00,53.4,53.0,29.78,West,264,0.0,1.0,98,0.00,,,0.00,weatherlink.com 1.10,2013-09-15 12:01:00,
2013-09-15 05:16:00,53.2,53.0,29.78,WSW,243,0.0,0.0,98,0.00,,,0.00,weatherlink.com 1.10,2013-09-15 12:16:00,
2013-09-15 05:31:00,53.2,53.0,29.79,SW,214,1.0,2.0,98,0.00,,,0.00,weatherlink.com 1.10,2013-09-15 12:31:00,
2013-09-15 05:46:00,53.5,53.0,29.78,East,87,0.0,2.0,98,0.00,,,0.00,weatherlink.com 1.10,2013-09-15 12:46:00,
2013-09-15 06:01:00,54.1,54.0,29.78,East,79,0.0,2.0,98,0.00,,,0.00,weatherlink.com 1.10,2013-09-15 13:01:00,
2013-09-15 06:16:00,54.3,54.0,29.79,ENE,65,0.0,0.0,98,0.00,,,0.00,weatherlink.com 1.10,2013-09-15 13:16:00,
2013-09-15 06:31:00,54.4,54.0,29.80,NW,306,0.0,0.0,98,0.00,,,0.00,weatherlink.com 1.10,2013-09-15 13:31:00,
2013-09-15 06:46:00,54.4,54.0,29.80,NW,307,0.0,0.0,98,0.00,,,0.00,weatherlink.com 1.10,2013-09-15 13:46:00,
2013-09-15 07:01:00,54.0,53.0,29.80,WNW,282,0.0,0.0,97,0.00,,,0.00,weatherlink.com 1.10,2013-09-15 14:01:00,
2013-09-15 07:16:00,53.7,53.0,29.80,SW,236,0.0,0.0,97,0.00,,,0.00,weatherlink.com 1.10,2013-09-15 14:16:00,
2013-09-15 07:31:00,53.8,53.0,29.80,SW,224,0.0,0.0,98,0.00,,,0.00,weatherlink.com 1.10,2013-09-15 14:31:00,
2013-09-15 07:46:00,53.7,53.0,29.81,SW,233,3.0,4.0,97,0.00,,,0.00,weatherlink.com 1.10,2013-09-15 14:46:00,
2013-09-15 08:01:00,53.8,53.0,29.82,SW,226,0.0,2.0,97,0.00,,,0.00,weatherlink.com 1.10,2013-09-15 15:01:00,
2013-09-15 08:16:00,54.1,53.0,29.82,SSE,153,0.0,0.0,97,0.00,,,0.00,weatherlink.com 1.10,2013-09-15 15:16:00,
2013-09-15 08:31:00,54.9,54.0,29.82,SSE,152,0.0,0.0,97,0.00,,,0.00,weatherlink.com 1.10,2013-09-15 15:31:00,
2013-09-15 08:46:00,55.7,55.0,29.82,ENE,60,1.0,2.0,96,0.00,,,0.00,weatherlink.com 1.10,2013-09-15 15:46:00,
2013-09-15 09:02:00,57.4,56.0,29.83,West,274,0.0,2.0,95,0.00,,,0.00,weatherlink.com 1.10,2013-09-15 16:02:00,
2013-09-15 09:32:00,61.2,56.0,29.84,NNW,333,0.0,3.0,84,0.00,,,0.00,weatherlink.com 1.10,2013-09-15 16:32:00,
2013-09-15 09:47:00,62.6,58.0,29.84,SSW,193,0.0,1.0,84,0.00,,,0.00,weatherlink.com 1.10,2013-09-15 16:47:00,
2013-09-15 10:02:00,63.7,57.0,29.84,WNW,290,0.0,3.0,78,0.00,,,0.00,weatherlink.com 1.10,2013-09-15 17:02:00,
2013-09-15 10:17:00,64.8,57.0,29.84,SW,226,0.0,3.0,76,0.00,,,0.00,weatherlink.com 1.10,2013-09-15 17:17:00,
2013-09-15 10:32:00,66.8,57.0,29.84,NE,34,5.0,5.0,71,0.00,,,0.00,weatherlink.com 1.10,2013-09-15 17:32:00,
2013-09-15 10:47:00,66.5,58.0,29.84,North,350,0.0,2.0,73,0.00,,,0.00,weatherlink.com 1.10,2013-09-15 17:47:00,
2013-09-15 11:02:00,68.4,57.0,29.84,NNW,338,2.0,4.0,67,0.00,,,0.00,weatherlink.com 1.10,2013-09-15 18:02:00,
2013-09-15 11:17:00,69.7,58.0,29.84,ESE,120,0.0,5.0,66,0.00,,,0.00,weatherlink.com 1.10,2013-09-15 18:17:00,
2013-09-15 11:32:00,70.9,58.0,29.84,NNW,330,0.0,3.0,64,0.00,,,0.00,weatherlink.com 1.10,2013-09-15 18:32:00,
2013-09-15 11:47:00,72.2,58.0,29.84,WNW,283,1.0,6.0,61,0.00,,,0.00,weatherlink.com 1.10,2013-09-15 18:47:00,
2013-09-15 12:02:00,73.9,59.0,29.84,West,280,2.0,5.0,60,0.00,,,0.00,weatherlink.com 1.10,2013-09-15 19:02:00,
2013-09-15 12:17:00,74.1,60.0,29.84,NW,326,0.0,7.0,61,0.00,,,0.00,weatherlink.com 1.10,2013-09-15 19:17:00,
2013-09-15 12:32:00,75.0,60.0,29.83,SW,233,3.0,5.0,60,0.00,,,0.00,weatherlink.com 1.10,2013-09-15 19:32:00,
2013-09-15 12:47:00,75.9,60.0,29.83,South,177,2.0,11.0,59,0.00,,,0.00,weatherlink.com 1.10,2013-09-15 19:47:00,
2013-09-15 13:02:00,77.6,61.0,29.83,SSW,198,5.0,8.0,56,0.00,,,0.00,weatherlink.com 1.10,2013-09-15 20:02:00,
2013-09-15 13:17:00,77.2,60.0,29.83,South,191,2.0,12.0,55,0.00,,,0.00,weatherlink.com 1.10,2013-09-15 20:17:00,
2013-09-15 13:32:00,78.2,60.0,29.82,SSE,159,5.0,10.0,54,0.00,,,0.00,weatherlink.com 1.10,2013-09-15 20:32:00,
2013-09-15 13:47:00,78.6,60.0,29.82,SW,227,9.0,14.0,53,0.00,,,0.00,weatherlink.com 1.10,2013-09-15 20:47:00,
2013-09-15 14:02:00,78.6,60.0,29.82,SSW,210,3.0,16.0,53,0.00,,,0.00,weatherlink.com 1.10,2013-09-15 21:02:00,
2013-09-15 14:17:00,77.9,60.0,29.82,SSW,208,5.0,14.0,54,0.00,,,0.00,weatherlink.com 1.10,2013-09-15 21:17:00,
2013-09-15 14:32:00,77.4,59.0,29.81,SSW,198,5.0,16.0,54,0.00,,,0.00,weatherlink.com 1.10,2013-09-15 21:32:00,
2013-09-15 14:47:00,78.1,60.0,29.81,SW,225,4.0,16.0,54,0.00,,,0.00,weatherlink.com 1.10,2013-09-15 21:47:00,
2013-09-15 15:02:00,78.4,60.0,29.81,SSW,195,3.0,12.0,53,0.00,,,0.00,weatherlink.com 1.10,2013-09-15 22:02:00,
2013-09-15 15:17:00,78.1,59.0,29.81,SSW,212,9.0,13.0,53,0.00,,,0.00,weatherlink.com 1.10,2013-09-15 22:17:00,
2013-09-15 15:32:00,77.7,60.0,29.80,WSW,249,12.0,12.0,54,0.00,,,0.00,weatherlink.com 1.10,2013-09-15 22:32:00,
2013-09-15 15:47:00,78.3,60.0,29.80,SW,232,7.0,13.0,53,0.00,,,0.00,weatherlink.com 1.10,2013-09-15 22:47:00,
2013-09-15 16:02:00,77.5,59.0,29.80,SSE,165,8.0,14.0,54,0.00,,,0.00,weatherlink.com 1.10,2013-09-15 23:02:00,
2013-09-15 16:17:00,77.4,60.0,29.80,SW,233,4.0,13.0,55,0.00,,,0.00,weatherlink.com 1.10,2013-09-15 23:17:00,
2013-09-15 16:32:00,76.6,60.0,29.80,West,261,6.0,13.0,57,0.00,,,0.00,weatherlink.com 1.10,2013-09-15 23:32:00,
2013-09-15 16:48:00,76.6,61.0,29.80,SW,236,7.0,11.0,58,0.00,,,0.00,weatherlink.com 1.10,2013-09-15 23:48:00,
2013-09-15 17:03:00,76.3,60.0,29.79,SSW,193,5.0,12.0,58,0.00,,,0.00,weatherlink.com 1.10,2013-09-16 00:03:00,
2013-09-15 17:18:00,75.8,60.0,29.79,SSW,203,4.0,11.0,59,0.00,,,0.00,weatherlink.com 1.10,2013-09-16 00:18:00,
2013-09-15 17:33:00,74.2,60.0,29.79,SW,222,5.0,13.0,62,0.00,,,0.00,weatherlink.com 1.10,2013-09-16 00:33:00,
2013-09-15 17:48:00,73.2,60.0,29.80,South,186,9.0,13.0,64,0.00,,,0.00,weatherlink.com 1.10,2013-09-16 00:48:00,
2013-09-15 18:03:00,72.2,61.0,29.80,South,187,5.0,13.0,67,0.00,,,0.00,weatherlink.com 1.10,2013-09-16 01:03:00,
2013-09-15 18:18:00,71.7,61.0,29.80,ESE,115,4.0,11.0,68,0.00,,,0.00,weatherlink.com 1.10,2013-09-16 01:18:00,
2013-09-15 18:33:00,71.0,60.0,29.80,WSW,240,7.0,11.0,69,0.00,,,0.00,weatherlink.com 1.10,2013-09-16 01:33:00,
2013-09-15 18:48:00,69.4,60.0,29.81,South,169,7.0,14.0,73,0.00,,,0.00,weatherlink.com 1.10,2013-09-16 01:48:00,
2013-09-15 19:03:00,67.7,60.0,29.81,SSW,200,4.0,14.0,76,0.00,,,0.00,weatherlink.com 1.10,2013-09-16 02:03:00,
2013-09-15 19:18:00,66.0,60.0,29.81,South,183,4.0,15.0,80,0.00,,,0.00,weatherlink.com 1.10,2013-09-16 02:18:00,
2013-09-15 19:33:00,64.8,60.0,29.81,SSW,195,3.0,14.0,83,0.00,,,0.00,weatherlink.com 1.10,2013-09-16 02:33:00,
2013-09-15 19:48:00,63.9,59.0,29.81,SW,219,10.0,12.0,85,0.00,,,0.00,weatherlink.com 1.10,2013-09-16 02:48:00,
2013-09-15 20:03:00,63.1,59.0,29.81,South,191,2.0,11.0,86,0.00,,,0.00,weatherlink.com 1.10,2013-09-16 03:03:00,
2013-09-15 20:18:00,62.6,59.0,29.82,South,190,5.0,9.0,88,0.00,,,0.00,weatherlink.com 1.10,2013-09-16 03:18:00,
2013-09-15 20:33:00,62.1,59.0,29.82,SW,225,5.0,10.0,89,0.00,,,0.00,weatherlink.com 1.10,2013-09-16 03:33:00,
2013-09-15 20:48:00,61.7,59.0,29.83,SW,219,6.0,9.0,90,0.00,,,0.00,weatherlink.com 1.10,2013-09-16 03:48:00,
2013-09-15 21:03:00,61.6,59.0,29.83,SW,226,0.0,7.0,91,0.00,,,0.00,weatherlink.com 1.10,2013-09-16 04:03:00,
2013-09-15 21:18:00,61.6,59.0,29.83,SSE,150,1.0,5.0,92,0.00,,,0.00,weatherlink.com 1.10,2013-09-16 04:18:00,
2013-09-15 21:33:00,61.6,59.0,29.83,South,174,0.0,7.0,92,0.00,,,0.00,weatherlink.com 1.10,2013-09-16 04:33:00,
2013-09-15 21:48:00,61.4,59.0,29.83,SW,226,0.0,4.0,92,0.00,,,0.00,weatherlink.com 1.10,2013-09-16 04:48:00,
2013-09-15 22:03:00,61.1,59.0,29.83,South,174,0.0,0.0,93,0.00,,,0.00,weatherlink.com 1.10,2013-09-16 05:03:00,
2013-09-15 22:18:00,60.9,59.0,29.83,SW,215,0.0,0.0,93,0.00,,,0.00,weatherlink.com 1.10,2013-09-16 05:18:00,
2013-09-15 22:33:00,60.5,59.0,29.84,South,190,0.0,0.0,93,0.00,,,0.00,weatherlink.com 1.10,2013-09-16 05:33:00,
2013-09-15 22:48:00,60.1,58.0,29.83,SE,124,0.0,0.0,93,0.00,,,0.00,weatherlink.com 1.10,2013-09-16 05:48:00,
2013-09-15 23:03:00,59.9,58.0,29.84,SE,124,0.0,0.0,93,0.00,,,0.00,weatherlink.com 1.10,2013-09-16 06:03:00,
2013-09-15 23:18:00,59.5,58.0,29.84,SE,126,0.0,0.0,93,0.00,,,0.00,weatherlink.com 1.10,2013-09-16 06:18:00,
2013-09-15 23:33:00,58.8,57.0,29.84,SSE,157,0.0,0.0,93,0.00,,,0.00,weatherlink.com 1.10,2013-09-16 06:33:00,
2013-09-15 23:48:00,58.4,57.0,29.84,SSE,157,0.0,0.0,94,0.00,,,0.00,weatherlink.com 1.10,2013-09-16 06:48:00,